sensor_id;sensor_type;location;lat;lon;timestamp;pressure;altitude;pressure_sealevel;temperature;humidity
46129;BME280;31860;45.186;5.790;2023-03-22T00:00:48;99133.09;;;15.31;69.00
46129;BME280;31860;45.186;5.790;2023-03-22T00:03:14;99133.13;;;15.30;69.01
46129;BME280;31860;45.186;5.790;2023-03-22T00:05:40;99136.72;;;15.26;68.93
46129;BME280;31860;45.186;5.790;2023-03-22T00:08:06;99146.38;;;15.27;69.20
46129;BME280;31860;45.186;5.790;2023-03-22T00:10:34;99137.66;;;15.23;69.33
46129;BME280;31860;45.186;5.790;2023-03-22T00:13:00;99135.88;;;15.23;69.37
46129;BME280;31860;45.186;5.790;2023-03-22T00:15:26;99140.31;;;15.23;69.62
46129;BME280;31860;45.186;5.790;2023-03-22T00:17:54;99142.06;;;15.23;69.53
46129;BME280;31860;45.186;5.790;2023-03-22T00:20:21;99133.34;;;15.19;69.87
46129;BME280;31860;45.186;5.790;2023-03-22T00:22:48;99128.84;;;15.24;69.82
46129;BME280;31860;45.186;5.790;2023-03-22T00:25:15;99133.25;;;15.25;69.71
46129;BME280;31860;45.186;5.790;2023-03-22T00:27:40;99135.88;;;15.23;69.65
46129;BME280;31860;45.186;5.790;2023-03-22T00:30:07;99128.06;;;15.20;70.02
46129;BME280;31860;45.186;5.790;2023-03-22T00:32:34;99122.91;;;15.14;70.52
46129;BME280;31860;45.186;5.790;2023-03-22T00:35:00;99123.03;;;15.08;70.92
46129;BME280;31860;45.186;5.790;2023-03-22T00:37:26;99122.09;;;15.11;70.97
46129;BME280;31860;45.186;5.790;2023-03-22T00:39:53;99127.31;;;15.12;70.91
46129;BME280;31860;45.186;5.790;2023-03-22T00:42:18;99125.66;;;15.10;71.09
46129;BME280;31860;45.186;5.790;2023-03-22T00:44:43;99124.00;;;15.04;71.49
46129;BME280;31860;45.186;5.790;2023-03-22T00:47:09;99124.03;;;15.01;71.69
46129;BME280;31860;45.186;5.790;2023-03-22T00:49:34;99117.97;;;14.98;71.99
46129;BME280;31860;45.186;5.790;2023-03-22T00:52:01;99118.84;;;14.98;71.80
46129;BME280;31860;45.186;5.790;2023-03-22T00:54:27;99120.56;;;14.99;71.17
46129;BME280;31860;45.186;5.790;2023-03-22T00:56:52;99115.28;;;15.02;70.92
46129;BME280;31860;45.186;5.790;2023-03-22T00:59:18;99116.16;;;15.01;70.73
46129;BME280;31860;45.186;5.790;2023-03-22T01:01:43;99108.38;;;14.95;71.13
46129;BME280;31860;45.186;5.790;2023-03-22T01:04:09;99105.81;;;14.92;71.26
46129;BME280;31860;45.186;5.790;2023-03-22T01:06:39;99106.72;;;14.90;71.75
46129;BME280;31860;45.186;5.790;2023-03-22T01:09:05;99103.25;;;14.89;71.49
46129;BME280;31860;45.186;5.790;2023-03-22T01:11:30;99099.72;;;14.90;71.07
46129;BME280;31860;45.186;5.790;2023-03-22T01:13:56;99104.19;;;14.85;71.49
46129;BME280;31860;45.186;5.790;2023-03-22T01:16:21;99103.41;;;14.80;71.97
46129;BME280;31860;45.186;5.790;2023-03-22T01:18:46;99103.50;;;14.76;72.29
46129;BME280;31860;45.186;5.790;2023-03-22T01:21:12;99097.44;;;14.72;72.56
46129;BME280;31860;45.186;5.790;2023-03-22T01:23:37;99095.72;;;14.70;72.37
46129;BME280;31860;45.186;5.790;2023-03-22T01:26:04;99098.41;;;14.65;72.73
46129;BME280;31860;45.186;5.790;2023-03-22T01:28:30;99096.69;;;14.64;72.83
46129;BME280;31860;45.186;5.790;2023-03-22T01:30:59;99081.84;;;14.62;72.84
46129;BME280;31860;45.186;5.790;2023-03-22T01:33:25;99094.97;;;14.62;72.78
46129;BME280;31860;45.186;5.790;2023-03-22T01:35:51;99088.84;;;14.61;72.68
46129;BME280;31860;45.186;5.790;2023-03-22T01:38:16;99091.53;;;14.58;72.76
46129;BME280;31860;45.186;5.790;2023-03-22T01:40:42;99088.06;;;14.56;72.85
46129;BME280;31860;45.186;5.790;2023-03-22T01:43:15;99091.53;;;14.58;74.31
46129;BME280;31860;45.186;5.790;2023-03-22T01:45:43;99088.13;;;14.53;75.15
46129;BME280;31860;45.186;5.790;2023-03-22T01:50:54;99091.63;;;14.52;75.21
46129;BME280;31860;45.186;5.790;2023-03-22T01:53:22;99100.44;;;14.51;76.73
46129;BME280;31860;45.186;5.790;2023-03-22T01:55:50;99093.50;;;14.47;74.65
46129;BME280;31860;45.186;5.790;2023-03-22T01:58:16;99095.28;;;14.45;74.87
46129;BME280;31860;45.186;5.790;2023-03-22T02:00:43;99097.94;;;14.44;75.16
46129;BME280;31860;45.186;5.790;2023-03-22T02:03:11;99093.56;;;14.43;75.22
46129;BME280;31860;45.186;5.790;2023-03-22T02:05:37;99080.41;;;14.43;74.92
46129;BME280;31860;45.186;5.790;2023-03-22T02:08:03;99089.25;;;14.40;74.85
46129;BME280;31860;45.186;5.790;2023-03-22T02:10:29;99081.34;;;14.40;74.88
46129;BME280;31860;45.186;5.790;2023-03-22T02:15:48;99084.00;;;14.40;74.60
46129;BME280;31860;45.186;5.790;2023-03-22T02:24:20;99082.28;;;14.38;74.49
46129;BME280;31860;45.186;5.790;2023-03-22T02:31:57;99078.72;;;14.40;74.67
46129;BME280;31860;45.186;5.790;2023-03-22T02:42:58;99093.81;;;14.26;78.76
46129;BME280;31860;45.186;5.790;2023-03-22T02:45:48;99101.81;;;14.18;79.25
46129;BME280;31860;45.186;5.790;2023-03-22T02:48:26;99099.28;;;14.14;79.39
46129;BME280;31860;45.186;5.790;2023-03-22T02:50:57;99094.97;;;14.08;78.96
46129;BME280;31860;45.186;5.790;2023-03-22T02:53:54;99088.06;;;14.03;79.62
46129;BME280;31860;45.186;5.790;2023-03-22T02:56:27;99085.41;;;14.03;79.60
46129;BME280;31860;45.186;5.790;2023-03-22T02:58:58;99082.81;;;14.04;78.32
46129;BME280;31860;45.186;5.790;2023-03-22T03:01:26;99082.81;;;14.04;77.71
46129;BME280;31860;45.186;5.790;2023-03-22T03:03:56;99081.91;;;14.05;77.49
46129;BME280;31860;45.186;5.790;2023-03-22T03:06:27;99081.84;;;14.10;76.92
46129;BME280;31860;45.186;5.790;2023-03-22T03:08:55;99079.19;;;14.11;76.40
46129;BME280;31860;45.186;5.790;2023-03-22T03:11:22;99085.31;;;14.10;76.08
46129;BME280;31860;45.186;5.790;2023-03-22T03:13:49;99088.84;;;14.09;76.05
46129;BME280;31860;45.186;5.790;2023-03-22T03:16:20;99088.81;;;14.11;76.14
46129;BME280;31860;45.186;5.790;2023-03-22T03:18:54;99091.53;;;14.06;76.48
46129;BME280;31860;45.186;5.790;2023-03-22T03:21:32;99081.94;;;14.01;77.36
46129;BME280;31860;45.186;5.790;2023-03-22T03:26:52;99096.03;;;13.98;78.96
46129;BME280;31860;45.186;5.790;2023-03-22T03:32:26;99088.28;;;13.89;79.18
46129;BME280;31860;45.186;5.790;2023-03-22T03:37:36;99077.00;;;13.83;79.57
46129;BME280;31860;45.186;5.790;2023-03-22T03:42:36;99083.16;;;13.82;78.63
46129;BME280;31860;45.186;5.790;2023-03-22T03:45:03;99074.41;;;13.81;78.14
46129;BME280;31860;45.186;5.790;2023-03-22T03:47:30;99081.41;;;13.81;78.07
46129;BME280;31860;45.186;5.790;2023-03-22T03:49:56;99076.97;;;13.84;77.54
46129;BME280;31860;45.186;5.790;2023-03-22T03:52:22;99076.91;;;13.89;76.94
46129;BME280;31860;45.186;5.790;2023-03-22T03:54:49;99087.44;;;13.87;77.15
46129;BME280;31860;45.186;5.790;2023-03-22T03:57:14;99092.75;;;13.83;78.31
46129;BME280;31860;45.186;5.790;2023-03-22T03:59:41;99091.00;;;13.83;78.84
46129;BME280;31860;45.186;5.790;2023-03-22T04:02:06;99091.88;;;13.82;79.10
46129;BME280;31860;45.186;5.790;2023-03-22T04:04:31;99097.22;;;13.78;79.53
46129;BME280;31860;45.186;5.790;2023-03-22T04:07:00;99091.19;;;13.70;79.88
46129;BME280;31860;45.186;5.790;2023-03-22T04:09:31;99089.47;;;13.69;80.61
46129;BME280;31860;45.186;5.790;2023-03-22T04:11:58;99092.13;;;13.66;81.11
46129;BME280;31860;45.186;5.790;2023-03-22T04:14:24;99093.03;;;13.62;81.51
46129;BME280;31860;45.186;5.790;2023-03-22T04:16:50;99099.19;;;13.61;81.72
46129;BME280;31860;45.186;5.790;2023-03-22T04:19:16;99093.94;;;13.61;81.92
46129;BME280;31860;45.186;5.790;2023-03-22T04:21:42;99096.59;;;13.58;82.29
46129;BME280;31860;45.186;5.790;2023-03-22T04:24:08;99087.06;;;13.54;82.24
46129;BME280;31860;45.186;5.790;2023-03-22T04:26:34;99087.06;;;13.51;81.49
46129;BME280;31860;45.186;5.790;2023-03-22T04:29:00;99083.53;;;13.55;80.87
46129;BME280;31860;45.186;5.790;2023-03-22T04:31:28;99087.06;;;13.54;80.57
46129;BME280;31860;45.186;5.790;2023-03-22T04:33:54;99096.63;;;13.56;80.10
46129;BME280;31860;45.186;5.790;2023-03-22T04:36:21;99088.78;;;13.55;79.65
46129;BME280;31860;45.186;5.790;2023-03-22T04:38:47;99090.53;;;13.54;79.42
46129;BME280;31860;45.186;5.790;2023-03-22T04:41:12;99088.81;;;13.53;79.58
46129;BME280;31860;45.186;5.790;2023-03-22T04:43:38;99087.06;;;13.52;79.55
46129;BME280;31860;45.186;5.790;2023-03-22T04:46:08;99094.03;;;13.55;79.64
46129;BME280;31860;45.186;5.790;2023-03-22T04:48:36;99100.13;;;13.57;78.76
46129;BME280;31860;45.186;5.790;2023-03-22T04:51:03;99089.66;;;13.55;78.88
46129;BME280;31860;45.186;5.790;2023-03-22T04:53:29;99092.31;;;13.54;79.35
46129;BME280;31860;45.186;5.790;2023-03-22T04:55:55;99091.47;;;13.49;80.10
46129;BME280;31860;45.186;5.790;2023-03-22T04:58:24;99094.19;;;13.41;81.08
46129;BME280;31860;45.186;5.790;2023-03-22T05:00:51;99095.13;;;13.37;81.55
46129;BME280;31860;45.186;5.790;2023-03-22T05:03:20;99096.06;;;13.35;82.63
46129;BME280;31860;45.186;5.790;2023-03-22T05:05:52;99089.88;;;13.37;83.97
46129;BME280;31860;45.186;5.790;2023-03-22T05:08:21;99096.84;;;13.40;83.81
46129;BME280;31860;45.186;5.790;2023-03-22T05:10:49;99099.44;;;13.43;83.67
46129;BME280;31860;45.186;5.790;2023-03-22T05:13:17;99104.63;;;13.47;83.35
46129;BME280;31860;45.186;5.790;2023-03-22T05:15:43;99095.84;;;13.50;83.61
46129;BME280;31860;45.186;5.790;2023-03-22T05:18:10;99092.31;;;13.51;83.69
46129;BME280;31860;45.186;5.790;2023-03-22T05:20:35;99099.31;;;13.53;83.66
46129;BME280;31860;45.186;5.790;2023-03-22T05:23:01;99101.03;;;13.53;83.43
46129;BME280;31860;45.186;5.790;2023-03-22T05:25:27;99101.03;;;13.54;83.28
46129;BME280;31860;45.186;5.790;2023-03-22T05:27:52;99106.25;;;13.57;82.83
46129;BME280;31860;45.186;5.790;2023-03-22T05:30:18;99108.03;;;13.55;82.85
46129;BME280;31860;45.186;5.790;2023-03-22T05:32:43;99107.13;;;13.56;82.61
46129;BME280;31860;45.186;5.790;2023-03-22T05:35:10;99101.84;;;13.58;81.95
46129;BME280;31860;45.186;5.790;2023-03-22T05:37:36;99109.72;;;13.58;81.95
46129;BME280;31860;45.186;5.790;2023-03-22T05:40:03;99099.22;;;13.59;81.90
46129;BME280;31860;45.186;5.790;2023-03-22T05:42:34;99105.31;;;13.60;81.89
46129;BME280;31860;45.186;5.790;2023-03-22T05:45:01;99106.22;;;13.59;82.16
46129;BME280;31860;45.186;5.790;2023-03-22T05:47:26;99107.94;;;13.61;81.87
46129;BME280;31860;45.186;5.790;2023-03-22T05:49:52;99098.31;;;13.60;81.87
46129;BME280;31860;45.186;5.790;2023-03-22T05:52:17;99100.09;;;13.58;81.74
46129;BME280;31860;45.186;5.790;2023-03-22T05:54:43;99100.91;;;13.62;81.17
46129;BME280;31860;45.186;5.790;2023-03-22T05:57:09;99101.81;;;13.61;80.90
46129;BME280;31860;45.186;5.790;2023-03-22T05:59:34;99095.72;;;13.59;81.28
46129;BME280;31860;45.186;5.790;2023-03-22T06:01:59;99100.06;;;13.60;80.80
46129;BME280;31860;45.186;5.790;2023-03-22T06:04:25;99087.78;;;13.62;81.08
46129;BME280;31860;45.186;5.790;2023-03-22T06:06:50;99099.16;;;13.62;80.92
46129;BME280;31860;45.186;5.790;2023-03-22T06:09:18;99104.41;;;13.64;80.55
46129;BME280;31860;45.186;5.790;2023-03-22T06:11:43;99110.53;;;13.63;79.89
46129;BME280;31860;45.186;5.790;2023-03-22T06:14:09;99114.91;;;13.64;79.57
46129;BME280;31860;45.186;5.790;2023-03-22T06:16:34;99115.81;;;13.61;79.36
46129;BME280;31860;45.186;5.790;2023-03-22T06:19:00;99115.81;;;13.61;79.33
46129;BME280;31860;45.186;5.790;2023-03-22T06:21:26;99115.78;;;13.63;79.04
46129;BME280;31860;45.186;5.790;2023-03-22T06:23:51;99112.28;;;13.64;78.93
46129;BME280;31860;45.186;5.790;2023-03-22T06:26:16;99111.38;;;13.63;78.72
46129;BME280;31860;45.186;5.790;2023-03-22T06:28:42;99121.91;;;13.65;78.76
46129;BME280;31860;45.186;5.790;2023-03-22T06:31:08;99124.53;;;13.65;78.80
46129;BME280;31860;45.186;5.790;2023-03-22T06:33:35;99123.63;;;13.64;78.94
46129;BME280;31860;45.186;5.790;2023-03-22T06:36:01;99114.03;;;13.65;78.78
46129;BME280;31860;45.186;5.790;2023-03-22T06:38:28;99117.50;;;13.64;78.99
46129;BME280;31860;45.186;5.790;2023-03-22T06:40:54;99117.50;;;13.65;79.21
46129;BME280;31860;45.186;5.790;2023-03-22T06:43:19;99113.94;;;13.69;79.74
46129;BME280;31860;45.186;5.790;2023-03-22T06:45:46;99112.25;;;13.67;80.20
46129;BME280;31860;45.186;5.790;2023-03-22T06:48:11;99114.81;;;13.70;80.51
46129;BME280;31860;45.186;5.790;2023-03-22T06:50:37;99105.13;;;13.73;80.51
46129;BME280;31860;45.186;5.790;2023-03-22T06:53:04;99112.16;;;13.71;80.99
46129;BME280;31860;45.186;5.790;2023-03-22T06:55:30;99118.22;;;13.75;81.29
46129;BME280;31860;45.186;5.790;2023-03-22T06:57:59;99112.06;;;13.79;81.67
46129;BME280;31860;45.186;5.790;2023-03-22T07:00:26;99120.72;;;13.85;81.75
46129;BME280;31860;45.186;5.790;2023-03-22T07:02:51;99113.59;;;13.92;81.42
46129;BME280;31860;45.186;5.790;2023-03-22T07:05:17;99115.22;;;14.02;81.85
46129;BME280;31860;45.186;5.790;2023-03-22T07:07:43;99109.78;;;14.14;83.39
46129;BME280;31860;45.186;5.790;2023-03-22T07:10:09;99105.22;;;14.25;82.37
46129;BME280;31860;45.186;5.790;2023-03-22T07:12:35;99096.44;;;14.29;81.28
46129;BME280;31860;45.186;5.790;2023-03-22T07:15:00;99095.47;;;14.35;79.88
46129;BME280;31860;45.186;5.790;2023-03-22T07:17:26;99098.78;;;14.46;80.35
46129;BME280;31860;45.186;5.790;2023-03-22T07:19:52;99097.72;;;14.56;79.74
46129;BME280;31860;45.186;5.790;2023-03-22T07:22:17;99098.38;;;14.68;79.34
46129;BME280;31860;45.186;5.790;2023-03-22T07:24:49;99097.28;;;14.80;78.87
46129;BME280;31860;45.186;5.790;2023-03-22T07:27:15;99094.41;;;14.92;78.66
46129;BME280;31860;45.186;5.790;2023-03-22T07:29:41;99109.94;;;15.05;77.75
46129;BME280;31860;45.186;5.790;2023-03-22T07:32:07;99100.97;;;15.14;77.86
46129;BME280;31860;45.186;5.790;2023-03-22T07:34:32;99106.13;;;15.20;77.99
46129;BME280;31860;45.186;5.790;2023-03-22T07:36:57;99101.66;;;15.23;77.40
46129;BME280;31860;45.186;5.790;2023-03-22T07:39:23;99098.88;;;15.31;76.29
46129;BME280;31860;45.186;5.790;2023-03-22T07:41:50;99106.66;;;15.37;75.82
46129;BME280;31860;45.186;5.790;2023-03-22T07:44:16;99104.84;;;15.42;75.22
46129;BME280;31860;45.186;5.790;2023-03-22T07:46:41;99111.75;;;15.48;74.95
46129;BME280;31860;45.186;5.790;2023-03-22T07:49:07;99108.13;;;15.53;75.24
46129;BME280;31860;45.186;5.790;2023-03-22T07:51:33;99115.91;;;15.59;74.49
46129;BME280;31860;45.186;5.790;2023-03-22T07:53:59;99112.25;;;15.65;73.74
46129;BME280;31860;45.186;5.790;2023-03-22T07:56:25;99119.13;;;15.72;73.36
46129;BME280;31860;45.186;5.790;2023-03-22T07:58:51;99113.66;;;15.81;72.96
46129;BME280;31860;45.186;5.790;2023-03-22T08:01:16;99112.59;;;15.89;72.49
46129;BME280;31860;45.186;5.790;2023-03-22T08:03:41;99116.75;;;15.98;71.91
46129;BME280;31860;45.186;5.790;2023-03-22T08:06:07;99117.44;;;16.07;71.66
46129;BME280;31860;45.186;5.790;2023-03-22T08:08:34;99117.25;;;16.15;72.02
46129;BME280;31860;45.186;5.790;2023-03-22T08:11:01;99117.00;;;16.24;71.99
46129;BME280;31860;45.186;5.790;2023-03-22T08:13:27;99116.78;;;16.33;71.67
46129;BME280;31860;45.186;5.790;2023-03-22T08:15:52;99121.03;;;16.40;70.78
46129;BME280;31860;45.186;5.790;2023-03-22T08:18:17;99119.09;;;16.47;70.33
46129;BME280;31860;45.186;5.790;2023-03-22T08:20:43;99116.38;;;16.51;68.92
46129;BME280;31860;45.186;5.790;2023-03-22T08:23:12;99121.41;;;16.60;67.96
46129;BME280;31860;45.186;5.790;2023-03-22T08:25:41;99126.50;;;16.68;67.54
46129;BME280;31860;45.186;5.790;2023-03-22T08:28:08;99133.31;;;16.76;67.70
46129;BME280;31860;45.186;5.790;2023-03-22T08:30:34;99127.81;;;16.84;67.60
46129;BME280;31860;45.186;5.790;2023-03-22T08:33:00;99129.38;;;16.92;67.08
46129;BME280;31860;45.186;5.790;2023-03-22T08:35:26;99123.00;;;16.99;66.83
46129;BME280;31860;45.186;5.790;2023-03-22T08:37:55;99118.44;;;17.06;65.94
46129;BME280;31860;45.186;5.790;2023-03-22T08:40:20;99120.91;;;17.12;65.04
46129;BME280;31860;45.186;5.790;2023-03-22T08:42:48;99107.53;;;17.18;64.58
46129;BME280;31860;45.186;5.790;2023-03-22T08:45:14;99113.47;;;17.26;64.77
46129;BME280;31860;45.186;5.790;2023-03-22T08:47:40;99103.63;;;17.31;63.84
46129;BME280;31860;45.186;5.790;2023-03-22T08:50:06;99106.06;;;17.39;63.80
46129;BME280;31860;45.186;5.790;2023-03-22T08:52:32;99100.59;;;17.45;63.29
46129;BME280;31860;45.186;5.790;2023-03-22T08:54:58;99094.25;;;17.53;63.01
46129;BME280;31860;45.186;5.790;2023-03-22T08:57:23;99094.03;;;17.61;62.09
46129;BME280;31860;45.186;5.790;2023-03-22T08:59:52;99091.16;;;17.68;61.83
46129;BME280;31860;45.186;5.790;2023-03-22T09:02:17;99088.28;;;17.74;61.54
46129;BME280;31860;45.186;5.790;2023-03-22T09:04:43;99086.28;;;17.82;61.51
46129;BME280;31860;45.186;5.790;2023-03-22T09:07:09;99079.94;;;17.88;61.21
46129;BME280;31860;45.186;5.790;2023-03-22T09:09:35;99081.47;;;17.95;60.93
46129;BME280;31860;45.186;5.790;2023-03-22T09:12:01;99079.56;;;18.00;60.36
46129;BME280;31860;45.186;5.790;2023-03-22T09:14:26;99081.09;;;18.07;60.17
46129;BME280;31860;45.186;5.790;2023-03-22T09:16:52;99072.97;;;18.13;59.89
46129;BME280;31860;45.186;5.790;2023-03-22T09:19:17;99071.84;;;18.20;59.70
46129;BME280;31860;45.186;5.790;2023-03-22T09:21:42;99073.38;;;18.27;58.83
46129;BME280;31860;45.186;5.790;2023-03-22T09:24:08;99065.19;;;18.35;58.45
46129;BME280;31860;45.186;5.790;2023-03-22T09:26:33;99063.19;;;18.43;57.57
46129;BME280;31860;45.186;5.790;2023-03-22T09:28:59;99054.13;;;18.50;56.83
46129;BME280;31860;45.186;5.790;2023-03-22T09:31:25;99055.66;;;18.57;56.11
46129;BME280;31860;45.186;5.790;2023-03-22T09:33:50;99054.59;;;18.62;55.63
46129;BME280;31860;45.186;5.790;2023-03-22T09:36:16;99056.09;;;18.69;54.91
46129;BME280;31860;45.186;5.790;2023-03-22T09:38:42;99059.34;;;18.77;54.03
46129;BME280;31860;45.186;5.790;2023-03-22T09:41:38;99048.44;;;18.86;51.70
46129;BME280;31860;45.186;5.790;2023-03-22T09:44:10;99051.72;;;18.93;53.41
46129;BME280;31860;45.186;5.790;2023-03-22T09:46:39;99047.94;;;19.00;53.07
46129;BME280;31860;45.186;5.790;2023-03-22T09:49:10;99037.97;;;19.07;52.64
46129;BME280;31860;45.186;5.790;2023-03-22T09:51:49;99037.81;;;19.11;52.58
46129;BME280;31860;45.186;5.790;2023-03-22T09:54:22;99036.72;;;19.17;52.75
46129;BME280;31860;45.186;5.790;2023-03-22T10:10:34;99019.47;;;19.53;49.15
46129;BME280;31860;45.186;5.790;2023-03-22T10:13:17;99020.22;;;19.56;50.25
46129;BME280;31860;45.186;5.790;2023-03-22T10:15:48;99022.63;;;19.62;50.77
46129;BME280;31860;45.186;5.790;2023-03-22T10:18:19;99012.53;;;19.72;50.71
46129;BME280;31860;45.186;5.790;2023-03-22T10:23:20;99002.06;;;19.91;49.68
46129;BME280;31860;45.186;5.790;2023-03-22T10:25:49;99004.41;;;19.98;49.91
46129;BME280;31860;45.186;5.790;2023-03-22T10:28:39;98992.53;;;20.07;49.36
46129;BME280;31860;45.186;5.790;2023-03-22T10:31:03;98991.22;;;20.17;49.33
46129;BME280;31860;45.186;5.790;2023-03-22T10:35:57;98990.69;;;20.30;48.83
46129;BME280;31860;45.186;5.790;2023-03-22T10:38:26;98989.50;;;20.37;49.07
46129;BME280;31860;45.186;5.790;2023-03-22T10:40:54;98989.97;;;20.47;48.94
46129;BME280;31860;45.186;5.790;2023-03-22T10:45:54;98985.66;;;20.64;48.28
46129;BME280;31860;45.186;5.790;2023-03-22T10:48:57;98983.47;;;20.74;47.64
46129;BME280;31860;45.186;5.790;2023-03-22T10:51:25;98980.25;;;20.86;46.40
46129;BME280;31860;45.186;5.790;2023-03-22T10:53:54;98970.13;;;20.94;47.32
46129;BME280;31860;45.186;5.790;2023-03-22T10:56:20;98966.31;;;21.01;47.19
46129;BME280;31860;45.186;5.790;2023-03-22T10:58:49;98964.16;;;21.09;45.85
46129;BME280;31860;45.186;5.790;2023-03-22T11:01:35;98958.50;;;21.17;44.57
46129;BME280;31860;45.186;5.790;2023-03-22T11:04:09;98957.25;;;21.24;45.48
46129;BME280;31860;45.186;5.790;2023-03-22T11:06:38;98947.22;;;21.30;45.00
46129;BME280;31860;45.186;5.790;2023-03-22T11:09:21;98939.72;;;21.38;43.43
46129;BME280;31860;45.186;5.790;2023-03-22T11:11:52;98935.78;;;21.47;43.85
46129;BME280;31860;45.186;5.790;2023-03-22T11:14:26;98933.63;;;21.55;43.71
46129;BME280;31860;45.186;5.790;2023-03-22T11:16:58;98933.38;;;21.59;44.21
46129;BME280;31860;45.186;5.790;2023-03-22T11:19:32;98920.75;;;21.64;43.79
46129;BME280;31860;45.186;5.790;2023-03-22T11:21:59;98916.84;;;21.72;42.05
46129;BME280;31860;45.186;5.790;2023-03-22T11:24:30;98913.94;;;21.76;43.52
46129;BME280;31860;45.186;5.790;2023-03-22T11:27:29;98918.00;;;21.85;42.83
46129;BME280;31860;45.186;5.790;2023-03-22T11:35:01;98905.72;;;21.99;42.48
46129;BME280;31860;45.186;5.790;2023-03-22T11:37:29;98898.34;;;22.04;43.50
46129;BME280;31860;45.186;5.790;2023-03-22T11:40:00;98892.88;;;22.07;42.48
46129;BME280;31860;45.186;5.790;2023-03-22T11:42:26;98889.91;;;22.13;43.04
46129;BME280;31860;45.186;5.790;2023-03-22T11:44:51;98883.56;;;22.16;43.00
46129;BME280;31860;45.186;5.790;2023-03-22T11:47:19;98886.00;;;22.20;42.69
46129;BME280;31860;45.186;5.790;2023-03-22T11:49:46;98880.50;;;22.23;42.79
46129;BME280;31860;45.186;5.790;2023-03-22T11:52:23;98882.84;;;22.29;41.40
46129;BME280;31860;45.186;5.790;2023-03-22T11:54:50;98870.22;;;22.33;41.76
46129;BME280;31860;45.186;5.790;2023-03-22T11:57:25;98868.22;;;22.38;40.80
46129;BME280;31860;45.186;5.790;2023-03-22T11:59:56;98864.50;;;22.40;39.22
46129;BME280;31860;45.186;5.790;2023-03-22T12:02:30;98862.53;;;22.44;40.09
46129;BME280;31860;45.186;5.790;2023-03-22T12:05:21;98855.09;;;22.50;39.09
46129;BME280;31860;45.186;5.790;2023-03-22T12:07:54;98846.88;;;22.55;39.85
46129;BME280;31860;45.186;5.790;2023-03-22T12:10:30;98842.38;;;22.55;37.50
46129;BME280;31860;45.186;5.790;2023-03-22T12:13:03;98848.53;;;22.57;39.89
46129;BME280;31860;45.186;5.790;2023-03-22T12:15:32;98837.88;;;22.57;38.84
46129;BME280;31860;45.186;5.790;2023-03-22T12:18:18;98845.63;;;22.62;38.41
46129;BME280;31860;45.186;5.790;2023-03-22T12:20:53;98835.56;;;22.67;38.87
46129;BME280;31860;45.186;5.790;2023-03-22T12:23:22;98831.81;;;22.71;39.67
46129;BME280;31860;45.186;5.790;2023-03-22T12:26:22;98833.09;;;22.80;38.44
46129;BME280;31860;45.186;5.790;2023-03-22T12:29:00;98832.84;;;22.84;39.46
46129;BME280;31860;45.186;5.790;2023-03-22T12:31:32;98816.53;;;22.90;39.09
46129;BME280;31860;45.186;5.790;2023-03-22T12:34:05;98814.44;;;22.95;38.21
46129;BME280;31860;45.186;5.790;2023-03-22T12:39:12;98812.13;;;23.05;37.44
46129;BME280;31860;45.186;5.790;2023-03-22T12:41:46;98809.56;;;23.03;37.67
46129;BME280;31860;45.186;5.790;2023-03-22T12:44:22;98801.66;;;23.02;37.00
46129;BME280;31860;45.186;5.790;2023-03-22T12:54:48;98776.56;;;23.06;37.13
46129;BME280;31860;45.186;5.790;2023-03-22T12:57:15;98765.63;;;23.10;37.15
46129;BME280;31860;45.186;5.790;2023-03-22T12:59:48;98762.84;;;23.12;35.29
46129;BME280;31860;45.186;5.790;2023-03-22T13:02:18;98759.25;;;23.13;35.96
46129;BME280;31860;45.186;5.790;2023-03-22T13:04:56;98758.16;;;23.17;34.95
46129;BME280;31860;45.186;5.790;2023-03-22T13:07:37;98753.59;;;23.19;34.47
46129;BME280;31860;45.186;5.790;2023-03-22T13:21:18;98733.41;;;23.29;34.34
46129;BME280;31860;45.186;5.790;2023-03-22T13:26:42;98726.53;;;23.25;34.26
46129;BME280;31860;45.186;5.790;2023-03-22T13:29:34;98717.72;;;23.24;34.03
46129;BME280;31860;45.186;5.790;2023-03-22T13:32:27;98712.53;;;23.21;34.97
46129;BME280;31860;45.186;5.790;2023-03-22T13:34:52;98712.63;;;23.20;35.11
46129;BME280;31860;45.186;5.790;2023-03-22T13:37:33;98703.97;;;23.16;33.22
46129;BME280;31860;45.186;5.790;2023-03-22T13:40:14;98705.00;;;23.14;32.88
46129;BME280;31860;45.186;5.790;2023-03-22T13:42:47;98692.72;;;23.11;34.65
46129;BME280;31860;45.186;5.790;2023-03-22T13:45:32;98691.09;;;23.09;32.61
46129;BME280;31860;45.186;5.790;2023-03-22T13:50:29;98674.25;;;23.08;34.66
46129;BME280;31860;45.186;5.790;2023-03-22T13:52:58;98674.44;;;23.05;34.43
46129;BME280;31860;45.186;5.790;2023-03-22T14:01:32;98668.34;;;23.03;31.75
46129;BME280;31860;45.186;5.790;2023-03-22T14:04:06;98668.59;;;22.99;32.74
46129;BME280;31860;45.186;5.790;2023-03-22T14:06:40;98663.44;;;22.96;32.75
46129;BME280;31860;45.186;5.790;2023-03-22T14:09:19;98672.38;;;22.95;31.98
46129;BME280;31860;45.186;5.790;2023-03-22T14:11:58;98658.31;;;22.93;31.35
46129;BME280;31860;45.186;5.790;2023-03-22T14:14:34;98662.00;;;22.90;32.15
46129;BME280;31860;45.186;5.790;2023-03-22T14:17:20;98661.22;;;22.88;31.40
46129;BME280;31860;45.186;5.790;2023-03-22T14:19:49;98653.44;;;22.85;32.73
46129;BME280;31860;45.186;5.790;2023-03-22T14:22:32;98655.38;;;22.82;31.28
46129;BME280;31860;45.186;5.790;2023-03-22T14:24:59;98656.44;;;22.79;32.59
46129;BME280;31860;45.186;5.790;2023-03-22T14:27:25;98655.78;;;22.76;32.60
46129;BME280;31860;45.186;5.790;2023-03-22T14:29:51;98655.16;;;22.71;32.21
46129;BME280;31860;45.186;5.790;2023-03-22T14:32:25;98644.69;;;22.68;31.04
46129;BME280;31860;45.186;5.790;2023-03-22T14:35:08;98642.19;;;22.65;30.94
46129;BME280;31860;45.186;5.790;2023-03-22T14:37:37;98639.63;;;22.63;32.18
46129;BME280;31860;45.186;5.790;2023-03-22T14:40:27;98645.03;;;22.62;31.11
46129;BME280;31860;45.186;5.790;2023-03-22T14:42:53;98638.84;;;22.61;32.36
46129;BME280;31860;45.186;5.790;2023-03-22T14:45:21;98630.19;;;22.57;31.78